Time;durP1;ratioP1;P1;durP2;ratioP2;P2;SDS_P1;SDS_P2;PMS_P1;PMS_P2;Temp;Humidity;BMP_temperature;BMP_pressure;BME280_temperature;BME280_humidity;BME280_pressure;Samples;Min_cycle;Max_cycle;Signal;HPM_P1;HPM_P2
2023/11/12 00:01:50;;;;;;;10.90;9.10;;;4.10;99.90;;;;;;4997100;28;20499;-71
2023/11/12 00:04:18;;;;;;;16.90;14.15;;;4.10;99.90;;;;;;5000984;28;20591;-72
2023/11/12 00:06:44;;;;;;;28.55;26.08;;;4.10;99.90;;;;;;5001502;28;20065;-72
2023/11/12 00:09:10;;;;;;;46.90;41.92;;;4.10;99.90;;;;;;4999211;28;20423;-72
2023/11/12 00:11:38;;;;;;;45.13;40.40;;;4.10;99.90;;;;;;4999189;28;20030;-73
2023/11/12 00:14:04;;;;;;;134.52;80.65;;;4.10;99.90;;;;;;4998064;28;20113;-72
2023/11/12 00:16:30;;;;;;;41.97;37.88;;;4.00;99.90;;;;;;4997124;28;20109;-73
2023/11/12 00:18:57;;;;;;;90.63;70.15;;;4.10;99.90;;;;;;4999389;28;20555;-73
2023/11/12 00:21:24;;;;;;;120.50;81.68;;;4.20;99.90;;;;;;4999210;28;20109;-72
2023/11/12 00:23:51;;;;;;;54.53;49.47;;;4.20;99.90;;;;;;5000339;28;20053;-72
2023/11/12 00:26:17;;;;;;;85.75;72.53;;;4.20;99.90;;;;;;4997206;28;20026;-72
2023/11/12 00:28:44;;;;;;;196.73;97.15;;;4.20;99.90;;;;;;4997253;28;20038;-72
2023/11/12 00:31:10;;;;;;;144.32;90.95;;;4.20;99.90;;;;;;4997593;28;20022;-73
2023/11/12 00:33:36;;;;;;;95.40;75.50;;;4.20;99.90;;;;;;4999552;28;20451;-73
2023/11/12 00:36:02;;;;;;;264.73;106.40;;;4.20;99.90;;;;;;4999807;28;20033;-72
2023/11/12 00:38:28;;;;;;;305.65;110.30;;;4.20;99.90;;;;;;4997748;28;20030;-72
2023/11/12 00:40:54;;;;;;;197.48;96.57;;;4.20;99.90;;;;;;4998947;28;20391;-70
2023/11/12 00:43:26;;;;;;;349.67;117.70;;;4.20;99.90;;;;;;4997324;28;20145;-74
2023/11/12 00:46:04;;;;;;;349.70;114.78;;;4.20;99.90;;;;;;4999425;28;20488;-71
2023/11/12 00:48:30;;;;;;;325.50;111.50;;;4.10;99.90;;;;;;4991449;28;20034;-70
2023/11/12 00:50:56;;;;;;;325.40;111.95;;;4.10;99.90;;;;;;4986030;28;20022;-71
2023/11/12 00:53:22;;;;;;;351.50;118.68;;;4.10;99.90;;;;;;4990840;28;20061;-70
2023/11/12 00:55:48;;;;;;;235.95;99.20;;;4.10;99.90;;;;;;4977957;28;20081;-72
2023/11/12 00:58:14;;;;;;;280.80;107.65;;;4.10;99.90;;;;;;4992880;28;20649;-71
2023/11/12 01:00:42;;;;;;;3.72;1.65;;;4.00;99.90;;;;;;4993752;28;20026;-71
2023/11/12 01:03:09;;;;;;;4.47;2.17;;;4.00;99.90;;;;;;4993283;28;20038;-71
2023/11/12 01:05:37;;;;;;;22.80;2.25;;;4.00;99.90;;;;;;4994685;28;20408;-75
2023/11/12 01:08:04;;;;;;;9.05;2.88;;;4.10;99.90;;;;;;4993421;28;20038;-71
2023/11/12 01:10:30;;;;;;;9.73;2.95;;;4.00;99.90;;;;;;4993567;28;20033;-71
2023/11/12 01:12:56;;;;;;;13.10;3.55;;;4.00;99.90;;;;;;4992739;28;20042;-73
2023/11/12 01:15:23;;;;;;;6.50;2.58;;;4.00;99.90;;;;;;4994960;28;20177;-73
2023/11/12 01:17:48;;;;;;;5.22;2.10;;;4.00;99.90;;;;;;4990191;28;20056;-72
2023/11/12 01:20:14;;;;;;;126.97;75.55;;;4.00;99.90;;;;;;5001441;28;20037;-71
2023/11/12 01:22:41;;;;;;;166.02;82.63;;;4.00;99.90;;;;;;4992107;28;20030;-72
2023/11/12 01:25:07;;;;;;;182.93;85.90;;;4.00;99.90;;;;;;4989836;28;20027;-73
2023/11/12 01:27:33;;;;;;;161.45;82.75;;;4.00;99.90;;;;;;4998887;28;20038;-71
2023/11/12 01:29:58;;;;;;;170.93;84.40;;;4.00;99.90;;;;;;4977052;28;20089;-73
2023/11/12 01:32:24;;;;;;;86.22;61.25;;;4.00;99.90;;;;;;4986227;28;20027;-71
2023/11/12 01:34:51;;;;;;;163.88;84.60;;;4.00;99.90;;;;;;4984931;28;20431;-71
2023/11/12 01:37:17;;;;;;;167.63;85.25;;;4.00;99.90;;;;;;4992974;28;20056;-72
2023/11/12 01:39:43;;;;;;;144.45;79.13;;;4.00;99.90;;;;;;4994178;28;20459;-75
2023/11/12 01:42:11;;;;;;;179.43;84.90;;;4.00;99.90;;;;;;4978472;28;20058;-74
2023/11/12 01:44:44;;;;;;;99.80;68.40;;;4.00;99.90;;;;;;4993558;28;20496;-71
2023/11/12 01:47:10;;;;;;;38.88;33.75;;;4.00;99.90;;;;;;4991882;28;20035;-71
2023/11/12 01:49:37;;;;;;;132.70;77.55;;;3.90;99.90;;;;;;4992082;28;20042;-73
2023/11/12 01:52:08;;;;;;;109.70;73.75;;;3.90;99.90;;;;;;4989730;28;20125;-73
2023/11/12 01:54:38;;;;;;;116.38;72.85;;;3.90;99.90;;;;;;4975800;28;20062;-74
2023/11/12 01:57:06;;;;;;;106.32;69.82;;;3.90;99.90;;;;;;4989422;28;20039;-71
2023/11/12 01:59:34;;;;;;;224.80;90.43;;;3.80;99.90;;;;;;4990584;28;20502;-71
2023/11/12 02:02:00;;;;;;;220.65;90.90;;;3.80;99.90;;;;;;4987951;28;20076;-74
2023/11/12 02:04:27;;;;;;;279.23;96.72;;;3.80;99.90;;;;;;4995823;28;20085;-71
2023/11/12 02:06:54;;;;;;;325.67;102.60;;;3.80;99.90;;;;;;4985251;28;20023;-71
2023/11/12 02:09:22;;;;;;;330.75;101.10;;;3.70;99.90;;;;;;4997547;28;20468;-74
2023/11/12 02:11:50;;;;;;;277.55;95.78;;;3.80;99.90;;;;;;5015172;28;20038;-72
2023/11/12 02:14:20;;;;;;;310.30;97.90;;;3.80;99.90;;;;;;4995821;28;20027;-73
2023/11/12 02:16:48;;;;;;;250.02;92.82;;;3.80;99.90;;;;;;5013917;28;20035;-73
2023/11/12 02:19:30;;;;;;;219.38;97.72;;;3.70;99.90;;;;;;4999020;28;20033;-73
2023/11/12 02:21:56;;;;;;;318.65;109.88;;;3.70;99.90;;;;;;5001974;28;20021;-71
2023/11/12 02:24:25;;;;;;;322.80;112.80;;;3.60;99.90;;;;;;4999935;28;20030;-72
2023/11/12 02:26:51;;;;;;;262.17;107.07;;;3.70;99.90;;;;;;4981993;28;20022;-70
2023/11/12 02:29:17;;;;;;;202.52;97.20;;;3.70;99.90;;;;;;4999227;28;20055;-72
2023/11/12 02:31:43;;;;;;;273.42;106.72;;;3.70;99.90;;;;;;5002653;28;20049;-72
2023/11/12 02:34:09;;;;;;;334.10;115.53;;;3.70;99.90;;;;;;4983331;28;20038;-72
2023/11/12 02:36:35;;;;;;;317.83;112.43;;;3.80;99.90;;;;;;5000303;28;20034;-72
2023/11/12 02:39:08;;;;;;;299.73;114.22;;;3.80;99.90;;;;;;4998207;28;20038;-71
2023/11/12 02:41:39;;;;;;;307.10;113.63;;;3.90;99.90;;;;;;4998297;28;20484;-71
2023/11/12 02:44:09;;;;;;;157.93;87.20;;;4.00;99.90;;;;;;4995997;28;20117;-70
2023/11/12 02:46:35;;;;;;;42.78;39.58;;;3.90;99.90;;;;;;5004046;28;20021;-73
2023/11/12 02:49:07;;;;;;;288.10;111.10;;;4.00;99.90;;;;;;4994825;28;20496;-71
2023/11/12 02:51:34;;;;;;;236.00;104.93;;;4.00;99.90;;;;;;4997422;28;20034;-71
2023/11/12 02:54:00;;;;;;;245.15;101.43;;;3.90;99.90;;;;;;4997433;28;20106;-71
2023/11/12 02:56:26;;;;;;;69.10;60.53;;;3.90;99.90;;;;;;5001798;28;20168;-71
2023/11/12 02:58:51;;;;;;;233.27;103.05;;;3.90;99.90;;;;;;4998039;28;20030;-70
2023/11/12 03:01:19;;;;;;;157.85;95.65;;;3.90;99.90;;;;;;4996196;28;20100;-71
2023/11/12 03:03:45;;;;;;;408.20;149.10;;;3.90;99.90;;;;;;4980927;28;20504;-71
2023/11/12 03:06:12;;;;;;;593.60;147.45;;;3.90;99.90;;;;;;4998061;28;20034;-71
2023/11/12 03:08:40;;;;;;;519.55;137.45;;;3.90;99.90;;;;;;4994916;28;20580;-73
2023/11/12 03:11:09;;;;;;;564.78;143.48;;;3.90;99.90;;;;;;4991258;28;20025;-73
2023/11/12 03:13:35;;;;;;;691.90;315.73;;;3.90;99.90;;;;;;4997933;28;20026;-73
2023/11/12 03:16:01;;;;;;;138.60;89.72;;;4.00;99.90;;;;;;4999675;28;20037;-72
2023/11/12 03:18:26;;;;;;;311.50;112.68;;;4.00;99.90;;;;;;4997914;28;20030;-73
2023/11/12 03:20:52;;;;;;;238.48;103.82;;;3.80;99.90;;;;;;4985679;28;20045;-73
2023/11/12 03:23:18;;;;;;;422.08;134.55;;;3.70;99.90;;;;;;4985477;28;20034;-71
2023/11/12 03:25:45;;;;;;;446.67;140.52;;;3.70;99.90;;;;;;5002410;28;20047;-73
2023/11/12 03:28:10;;;;;;;321.00;110.93;;;3.80;99.90;;;;;;5004267;28;20029;-73
2023/11/12 03:30:39;;;;;;;321.88;110.75;;;3.90;99.90;;;;;;5020953;28;20024;-71
2023/11/12 03:33:06;;;;;;;5.57;3.22;;;4.00;99.90;;;;;;5019677;28;20467;-73
2023/11/12 03:35:31;;;;;;;3.00;2.60;;;4.00;99.90;;;;;;5000435;28;20122;-71
2023/11/12 03:37:57;;;;;;;2.92;2.45;;;4.00;99.90;;;;;;5003038;28;20120;-73
2023/11/12 03:40:23;;;;;;;3.95;2.28;;;4.10;99.90;;;;;;4999236;28;20036;-73
2023/11/12 03:42:49;;;;;;;6.10;3.35;;;4.10;99.90;;;;;;4999571;28;20046;-71
2023/11/12 03:45:15;;;;;;;4.43;2.50;;;4.00;99.90;;;;;;4986858;28;20036;-72
2023/11/12 03:47:42;;;;;;;4.45;3.38;;;4.10;99.90;;;;;;5017545;28;20489;-72
2023/11/12 03:50:08;;;;;;;5.82;4.13;;;4.10;99.90;;;;;;4987265;28;20036;-73
2023/11/12 03:52:34;;;;;;;7.75;4.63;;;4.00;99.90;;;;;;5017377;28;20017;-71
2023/11/12 03:54:59;;;;;;;4.63;2.90;;;4.10;99.90;;;;;;5000396;28;20026;-72
2023/11/12 03:57:25;;;;;;;4.45;3.08;;;4.10;99.90;;;;;;5015974;28;20026;-72
2023/11/12 03:59:52;;;;;;;6.43;3.30;;;4.10;99.90;;;;;;4999269;28;20520;-71
2023/11/12 04:02:20;;;;;;;5.68;3.25;;;4.10;99.90;;;;;;5000244;28;20032;-72
2023/11/12 04:04:46;;;;;;;5.57;3.63;;;4.10;99.90;;;;;;4999404;28;20034;-72
2023/11/12 04:07:13;;;;;;;5.53;3.17;;;4.10;99.90;;;;;;5018369;28;20026;-70
2023/11/12 04:09:39;;;;;;;5.05;3.63;;;4.10;99.90;;;;;;4996934;28;20070;-71
2023/11/12 04:12:06;;;;;;;5.32;2.65;;;4.20;99.90;;;;;;5001456;28;20029;-72
2023/11/12 04:14:32;;;;;;;6.95;3.25;;;4.20;99.90;;;;;;4999249;28;20828;-72
2023/11/12 04:16:58;;;;;;;5.53;3.05;;;4.20;99.90;;;;;;4992912;28;20033;-71
2023/11/12 04:19:24;;;;;;;5.22;3.05;;;4.20;99.90;;;;;;5017321;28;20021;-71
2023/11/12 04:21:51;;;;;;;5.30;3.17;;;4.20;99.90;;;;;;5019639;28;20472;-69
2023/11/12 04:24:17;;;;;;;6.47;4.10;;;4.20;99.90;;;;;;4999345;28;20041;-72
2023/11/12 04:26:44;;;;;;;6.25;2.97;;;4.30;99.90;;;;;;5018201;28;20029;-73
2023/11/12 04:29:13;;;;;;;5.43;2.92;;;4.30;99.90;;;;;;4999586;28;20101;-73
2023/11/12 04:31:39;;;;;;;4.95;3.40;;;4.30;99.90;;;;;;5018034;28;20041;-72
2023/11/12 04:34:05;;;;;;;15.00;3.63;;;4.30;99.90;;;;;;5000833;28;20061;-74
2023/11/12 04:36:35;;;;;;;4.03;2.88;;;4.30;99.90;;;;;;4999509;28;20025;-73
2023/11/12 04:39:00;;;;;;;4.47;2.70;;;4.30;99.90;;;;;;5000439;28;20360;-74
2023/11/12 04:41:27;;;;;;;7.60;4.97;;;4.40;99.90;;;;;;4998469;28;20089;-73
2023/11/12 04:43:53;;;;;;;6.50;3.15;;;4.40;99.90;;;;;;5018335;28;20406;-73
2023/11/12 04:46:20;;;;;;;8.07;3.42;;;4.40;99.90;;;;;;5016888;28;20024;-73
2023/11/12 04:48:47;;;;;;;8.20;3.03;;;4.40;99.90;;;;;;5014510;28;20044;-72
2023/11/12 04:51:13;;;;;;;5.88;2.60;;;4.40;99.90;;;;;;5001352;28;20032;-72
2023/11/12 04:53:40;;;;;;;5.30;3.08;;;4.30;99.90;;;;;;4987034;28;20502;-71
2023/11/12 04:56:11;;;;;;;6.78;3.30;;;4.40;99.90;;;;;;5001753;28;20025;-71
2023/11/12 04:58:37;;;;;;;7.55;2.92;;;4.40;99.90;;;;;;4998597;28;20033;-71
2023/11/12 05:01:03;;;;;;;6.55;2.92;;;4.30;99.90;;;;;;5004151;28;20112;-72
2023/11/12 05:03:31;;;;;;;3.33;2.10;;;4.30;99.90;;;;;;5015585;28;20125;-72
2023/11/12 05:05:59;;;;;;;5.07;2.90;;;4.30;99.90;;;;;;5022092;28;20026;-72
2023/11/12 05:08:25;;;;;;;5.95;2.63;;;4.30;99.90;;;;;;4986728;28;20030;-71
2023/11/12 05:10:51;;;;;;;4.28;2.45;;;4.40;99.90;;;;;;4998324;28;20080;-72
2023/11/12 05:13:17;;;;;;;5.55;2.97;;;4.40;99.90;;;;;;5010389;28;20193;-72
2023/11/12 05:15:43;;;;;;;5.38;3.40;;;4.40;99.90;;;;;;4998893;28;20029;-72
2023/11/12 05:18:08;;;;;;;7.10;2.35;;;4.40;99.90;;;;;;4996791;28;20030;-73
2023/11/12 05:20:35;;;;;;;6.25;4.00;;;4.30;99.90;;;;;;5007779;28;20544;-72
2023/11/12 05:23:01;;;;;;;5.88;3.40;;;4.30;99.90;;;;;;4998264;28;20555;-72
2023/11/12 05:25:28;;;;;;;4.70;2.78;;;4.30;99.90;;;;;;4990822;28;20811;-72
2023/11/12 05:27:54;;;;;;;3.83;2.40;;;4.30;99.90;;;;;;4992364;28;20041;-72
2023/11/12 05:30:21;;;;;;;7.18;2.90;;;4.20;99.90;;;;;;5000541;28;20033;-72
2023/11/12 05:32:47;;;;;;;3.75;2.83;;;3.80;99.90;;;;;;5000433;28;20479;-73
2023/11/12 05:35:13;;;;;;;5.70;2.92;;;3.80;99.90;;;;;;5002142;28;20101;-71
2023/11/12 05:37:39;;;;;;;5.97;3.10;;;3.80;99.90;;;;;;5019749;28;20049;-71
2023/11/12 05:40:05;;;;;;;4.10;2.38;;;3.90;99.90;;;;;;4983831;28;20038;-71
2023/11/12 05:42:32;;;;;;;7.68;4.55;;;3.80;99.90;;;;;;5023520;28;20033;-72
2023/11/12 05:44:58;;;;;;;4.32;2.80;;;3.90;99.90;;;;;;4999697;28;20113;-72
2023/11/12 05:47:23;;;;;;;3.72;2.72;;;3.80;99.90;;;;;;4985393;28;20116;-72
2023/11/12 05:49:49;;;;;;;4.85;2.58;;;3.90;99.90;;;;;;4984765;28;20037;-71
2023/11/12 05:52:15;;;;;;;6.80;4.70;;;3.90;99.90;;;;;;5021333;28;20053;-72
2023/11/12 05:54:41;;;;;;;4.80;3.53;;;4.00;99.90;;;;;;5001648;28;20018;-71
2023/11/12 05:57:07;;;;;;;5.10;2.60;;;4.00;99.90;;;;;;5022033;28;20079;-72
2023/11/12 05:59:33;;;;;;;4.57;3.35;;;4.00;99.90;;;;;;4998623;28;20038;-72
2023/11/12 06:01:58;;;;;;;6.20;4.13;;;4.00;99.90;;;;;;5002954;28;20041;-72
2023/11/12 06:04:24;;;;;;;4.43;2.92;;;4.00;99.90;;;;;;5016010;28;20033;-74
2023/11/12 06:06:50;;;;;;;5.20;2.92;;;4.00;99.90;;;;;;4996084;28;20062;-72
2023/11/12 06:09:17;;;;;;;9.32;4.20;;;4.00;99.90;;;;;;5015868;28;20064;-72
2023/11/12 06:11:42;;;;;;;8.07;2.95;;;4.00;99.90;;;;;;4997442;28;20733;-71
2023/11/12 06:14:08;;;;;;;6.43;3.50;;;4.00;99.90;;;;;;4999893;28;20109;-70
2023/11/12 06:16:35;;;;;;;5.18;3.58;;;4.00;99.90;;;;;;5021458;28;20113;-71
2023/11/12 06:19:02;;;;;;;9.90;3.97;;;4.10;99.90;;;;;;5006656;28;20038;-71
2023/11/12 06:21:28;;;;;;;6.15;3.60;;;4.10;99.90;;;;;;5004273;28;20040;-76
2023/11/12 06:23:54;;;;;;;7.15;4.55;;;4.00;99.90;;;;;;5004772;28;20410;-71
2023/11/12 06:26:21;;;;;;;4.88;3.85;;;4.00;99.90;;;;;;5004841;28;20044;-71
2023/11/12 06:28:49;;;;;;;8.07;4.50;;;4.00;99.90;;;;;;5020424;28;20029;-72
2023/11/12 06:31:18;;;;;;;9.13;4.68;;;4.10;99.90;;;;;;4981173;28;20030;-70
2023/11/12 06:33:44;;;;;;;6.05;4.07;;;4.10;99.90;;;;;;4994237;28;20059;-70
2023/11/12 06:36:13;;;;;;;8.32;4.65;;;4.10;99.90;;;;;;5012717;28;20022;-72
2023/11/12 06:38:43;;;;;;;9.05;3.78;;;4.10;99.90;;;;;;5001644;28;20097;-69
2023/11/12 06:41:12;;;;;;;8.48;3.83;;;4.20;99.90;;;;;;5018828;28;20033;-69
2023/11/12 06:43:38;;;;;;;11.98;4.72;;;4.30;99.90;;;;;;5011295;28;20037;-70
2023/11/12 06:46:05;;;;;;;7.05;3.70;;;4.40;99.90;;;;;;4992960;28;20033;-70
2023/11/12 06:48:31;;;;;;;4.60;2.80;;;4.50;99.90;;;;;;4993145;28;20034;-70
2023/11/12 06:50:57;;;;;;;5.20;3.42;;;4.50;99.90;;;;;;4994130;28;20025;-71
2023/11/12 06:53:23;;;;;;;8.90;3.70;;;4.60;99.90;;;;;;4992054;28;20044;-69
2023/11/12 06:55:49;;;;;;;6.78;3.33;;;4.60;99.90;;;;;;5010884;28;20030;-70
2023/11/12 06:58:15;;;;;;;7.18;4.60;;;4.70;99.90;;;;;;5012178;28;20069;-69
2023/11/12 07:00:41;;;;;;;12.95;6.50;;;4.60;99.90;;;;;;4989339;28;20041;-69
2023/11/12 07:03:07;;;;;;;7.22;3.47;;;4.70;99.90;;;;;;5011145;28;20523;-69
2023/11/12 07:05:33;;;;;;;6.45;3.80;;;4.70;99.90;;;;;;4995154;28;20026;-69
2023/11/12 07:07:59;;;;;;;23.05;11.70;;;4.80;99.90;;;;;;5011532;28;20033;-71
2023/11/12 07:10:25;;;;;;;23.05;10.40;;;4.80;99.90;;;;;;5003190;28;20038;-70
2023/11/12 07:12:51;;;;;;;7.63;3.90;;;4.90;99.90;;;;;;4991489;28;20490;-70
2023/11/12 07:15:17;;;;;;;9.15;4.90;;;4.90;99.90;;;;;;4998573;28;20034;-71
2023/11/12 07:17:48;;;;;;;4.68;2.85;;;5.00;99.90;;;;;;5014767;28;20461;-69
2023/11/12 07:20:14;;;;;;;5.95;3.40;;;5.00;99.90;;;;;;5017330;28;20034;-70
2023/11/12 07:22:42;;;;;;;5.47;2.50;;;5.10;99.90;;;;;;4993791;28;20056;-70
2023/11/12 07:25:09;;;;;;;7.57;3.50;;;5.10;99.90;;;;;;5001838;28;20037;-70
2023/11/12 07:27:36;;;;;;;8.95;4.28;;;5.10;99.90;;;;;;4985871;28;20080;-70
2023/11/12 07:30:02;;;;;;;4.28;2.42;;;5.10;99.90;;;;;;4988582;28;20053;-70
2023/11/12 07:32:28;;;;;;;7.18;3.83;;;5.00;99.90;;;;;;5006477;28;20157;-69
2023/11/12 07:34:55;;;;;;;4.93;2.63;;;5.00;99.90;;;;;;4998785;28;20347;-70
2023/11/12 07:37:21;;;;;;;8.77;3.75;;;5.10;99.90;;;;;;4998446;28;20049;-71
2023/11/12 07:39:46;;;;;;;8.13;4.03;;;5.00;99.90;;;;;;4994175;28;20042;-71
2023/11/12 07:42:12;;;;;;;7.38;4.75;;;5.30;99.90;;;;;;4991427;28;20451;-71
2023/11/12 07:44:38;;;;;;;5.43;3.03;;;5.80;99.90;;;;;;5010949;28;20065;-70
2023/11/12 07:47:04;;;;;;;7.55;2.88;;;5.70;99.90;;;;;;4992879;28;20394;-71
2023/11/12 07:49:31;;;;;;;6.20;3.70;;;5.70;99.90;;;;;;4993595;28;20384;-72
2023/11/12 07:51:57;;;;;;;8.23;4.90;;;5.60;99.90;;;;;;4996375;28;20025;-71
2023/11/12 07:54:23;;;;;;;9.45;4.55;;;5.70;99.90;;;;;;4993878;28;20480;-71
2023/11/12 07:56:49;;;;;;;8.35;4.03;;;5.70;99.90;;;;;;5019211;28;20399;-73
2023/11/12 07:59:15;;;;;;;5.70;3.47;;;5.80;99.90;;;;;;4991740;28;20038;-71
2023/11/12 08:01:42;;;;;;;7.55;4.43;;;5.90;99.90;;;;;;4993401;28;20562;-71
2023/11/12 08:04:09;;;;;;;8.68;4.40;;;5.90;99.90;;;;;;5011339;28;20034;-72
2023/11/12 08:06:35;;;;;;;4.88;2.70;;;6.00;99.90;;;;;;5010103;28;20030;-72
2023/11/12 08:09:00;;;;;;;6.07;3.13;;;6.10;99.90;;;;;;4998450;28;20392;-70
2023/11/12 08:11:26;;;;;;;5.45;2.70;;;6.00;99.90;;;;;;4991120;28;20033;-70
2023/11/12 08:13:52;;;;;;;6.38;3.58;;;6.00;99.90;;;;;;5008703;28;20124;-70
2023/11/12 08:16:17;;;;;;;6.45;3.75;;;6.00;99.90;;;;;;4990457;28;20045;-70
2023/11/12 08:18:43;;;;;;;5.47;3.13;;;6.20;99.90;;;;;;5008419;28;20038;-71
2023/11/12 08:21:09;;;;;;;5.80;3.35;;;6.30;99.90;;;;;;5010875;28;20072;-72
2023/11/12 08:23:36;;;;;;;6.13;3.03;;;6.40;99.90;;;;;;4998399;28;20037;-70
2023/11/12 08:26:02;;;;;;;8.00;3.20;;;6.40;99.90;;;;;;5006219;28;20168;-70
2023/11/12 08:28:28;;;;;;;5.68;3.97;;;6.60;99.90;;;;;;4987954;28;20034;-70
2023/11/12 08:30:54;;;;;;;10.32;4.30;;;6.70;99.90;;;;;;4985360;28;20546;-71
2023/11/12 08:33:19;;;;;;;5.03;2.90;;;6.70;99.90;;;;;;4983541;28;20038;-71
2023/11/12 08:35:45;;;;;;;6.13;3.35;;;6.70;99.90;;;;;;4986579;28;20030;-70
2023/11/12 08:38:11;;;;;;;10.30;3.30;;;6.80;99.90;;;;;;4986684;28;20053;-70
2023/11/12 08:40:42;;;;;;;6.93;3.55;;;7.00;99.90;;;;;;4981496;28;20124;-72
2023/11/12 08:43:10;;;;;;;7.07;3.13;;;7.20;99.90;;;;;;4989408;28;20038;-70
2023/11/12 08:45:36;;;;;;;8.20;3.55;;;7.20;99.90;;;;;;4990959;28;20030;-69
2023/11/12 08:48:02;;;;;;;9.30;3.65;;;7.20;99.90;;;;;;4989166;28;20049;-68
2023/11/12 08:50:27;;;;;;;7.90;3.75;;;7.20;99.90;;;;;;4989126;28;20105;-71
2023/11/12 08:52:56;;;;;;;6.20;3.05;;;7.40;99.90;;;;;;4990955;28;20169;-70
2023/11/12 08:55:22;;;;;;;5.65;2.75;;;7.70;99.90;;;;;;4989642;28;20109;-71
2023/11/12 08:57:48;;;;;;;10.35;4.03;;;7.80;99.90;;;;;;4989684;28;20142;-70
2023/11/12 09:00:14;;;;;;;7.68;3.90;;;7.90;99.90;;;;;;5003964;28;20042;-69
2023/11/12 09:02:40;;;;;;;6.10;3.00;;;8.10;99.90;;;;;;4987916;28;20034;-69
2023/11/12 09:05:07;;;;;;;6.38;2.97;;;8.30;99.90;;;;;;4991791;28;20042;-71
2023/11/12 09:07:34;;;;;;;6.07;3.63;;;8.50;99.90;;;;;;4992316;28;20507;-70
2023/11/12 09:10:00;;;;;;;5.70;2.78;;;8.50;99.90;;;;;;4994631;28;20126;-70
2023/11/12 09:12:25;;;;;;;4.68;2.80;;;8.60;99.90;;;;;;4992601;28;20113;-71
2023/11/12 09:14:51;;;;;;;3.90;2.05;;;8.30;99.90;;;;;;4991241;28;20070;-71
2023/11/12 09:17:17;;;;;;;4.57;2.38;;;8.60;99.90;;;;;;4989625;28;20129;-69
2023/11/12 09:19:43;;;;;;;3.53;2.17;;;8.50;99.90;;;;;;4987465;28;20062;-69
2023/11/12 09:22:09;;;;;;;5.55;2.97;;;8.40;99.90;;;;;;4983968;28;20037;-72
2023/11/12 09:24:35;;;;;;;5.18;2.58;;;8.50;99.90;;;;;;4989443;28;20045;-76
2023/11/12 09:27:01;;;;;;;3.72;2.05;;;8.50;99.90;;;;;;4993752;28;20481;-70
2023/11/12 09:29:28;;;;;;;4.05;1.83;;;8.70;99.90;;;;;;4989996;28;20038;-71
2023/11/12 09:31:54;;;;;;;2.92;2.22;;;8.70;99.90;;;;;;4992503;28;20030;-70
2023/11/12 09:34:20;;;;;;;4.15;2.05;;;8.50;99.90;;;;;;4994897;28;20053;-72
2023/11/12 09:36:45;;;;;;;3.15;1.77;;;8.60;99.90;;;;;;4991720;28;20113;-71
2023/11/12 09:39:13;;;;;;;3.13;1.70;;;8.70;99.90;;;;;;4999760;28;20395;-71
2023/11/12 09:41:45;;;;;;;4.53;1.85;;;9.30;99.90;;;;;;4998695;28;20033;-71
2023/11/12 09:44:14;;;;;;;3.97;2.25;;;9.60;99.90;;;;;;4999524;28;20109;-70
2023/11/12 09:46:40;;;;;;;2.33;1.30;;;10.20;99.90;;;;;;4997074;28;20539;-70
2023/11/12 09:49:07;;;;;;;8.55;2.05;;;10.40;99.90;;;;;;4997986;28;20101;-70
2023/11/12 09:51:40;;;;;;;5.35;1.77;;;10.40;99.90;;;;;;4994560;28;20578;-70
2023/11/12 09:54:08;;;;;;;6.25;1.55;;;11.50;99.90;;;;;;4997792;28;20558;-69
2023/11/12 09:56:35;;;;;;;3.25;1.83;;;12.30;99.90;;;;;;5002786;28;20101;-70
2023/11/12 09:59:01;;;;;;;3.03;1.75;;;10.80;99.90;;;;;;5001164;28;20030;-69
2023/11/12 10:01:27;;;;;;;3.65;1.70;;;10.00;99.90;;;;;;5002948;28;20048;-72
2023/11/12 10:03:53;;;;;;;4.50;1.83;;;10.00;99.90;;;;;;4994331;28;20368;-70
2023/11/12 10:06:20;;;;;;;7.35;1.80;;;9.80;99.90;;;;;;4986030;28;20069;-70
2023/11/12 10:08:46;;;;;;;4.47;1.83;;;10.00;99.90;;;;;;4985878;28;20045;-70
2023/11/12 10:11:21;;;;;;;2.75;1.42;;;10.30;99.90;;;;;;4972933;28;20038;-70
2023/11/12 10:13:49;;;;;;;3.95;1.40;;;10.60;99.90;;;;;;4982264;28;20035;-71
2023/11/12 10:16:41;;;;;;;2.97;0.95;;;10.90;99.90;;;;;;4989898;28;20089;-70
2023/11/12 10:19:15;;;;;;;2.15;1.13;;;10.70;99.90;;;;;;4986997;28;20034;-70
2023/11/12 10:22:01;;;;;;;5.88;1.08;;;11.20;99.90;;;;;;4987470;28;20133;-70
2023/11/12 10:24:28;;;;;;;4.60;1.00;;;11.50;99.90;;;;;;5000854;28;20037;-71
2023/11/12 10:27:03;;;;;;;3.42;1.10;;;11.20;99.90;;;;;;4987969;28;20033;-70
2023/11/12 10:29:29;;;;;;;2.67;0.80;;;11.40;99.90;;;;;;5013232;28;20026;-70
2023/11/12 10:31:56;;;;;;;1.88;0.77;;;12.10;99.90;;;;;;5010153;28;20562;-69
2023/11/12 10:34:24;;;;;;;4.50;1.52;;;12.50;99.90;;;;;;4993013;28;20109;-70
2023/11/12 10:37:10;;;;;;;4.82;1.10;;;13.50;99.90;;;;;;4996912;28;20095;-71
2023/11/12 10:39:40;;;;;;;1.77;1.10;;;12.90;99.90;;;;;;4991808;28;20036;-70
2023/11/12 10:42:26;;;;;;;1.48;1.10;;;13.50;99.90;;;;;;4997771;28;20030;-70
2023/11/12 10:44:57;;;;;;;1.35;0.82;;;14.40;99.90;;;;;;5015625;28;20045;-70
2023/11/12 10:47:32;;;;;;;2.88;1.40;;;14.10;99.90;;;;;;5001816;28;20061;-70
2023/11/12 10:49:59;;;;;;;1.23;0.73;;;15.30;99.50;;;;;;4986134;28;20034;-70
2023/11/12 10:52:28;;;;;;;2.75;1.20;;;14.00;99.90;;;;;;4988924;28;20034;-71
2023/11/12 10:54:58;;;;;;;1.52;0.93;;;13.00;99.90;;;;;;4996773;28;20021;-70
2023/11/12 10:57:24;;;;;;;2.72;1.00;;;13.30;99.90;;;;;;4996304;28;20039;-70
2023/11/12 10:59:51;;;;;;;2.90;1.20;;;14.20;99.90;;;;;;5003815;28;20051;-71
2023/11/12 11:02:18;;;;;;;2.90;1.60;;;15.30;99.90;;;;;;4993005;28;20445;-71
2023/11/12 11:04:47;;;;;;;5.72;2.80;;;16.80;98.90;;;;;;5003363;28;20424;-71
2023/11/12 11:07:15;;;;;;;3.22;1.60;;;17.40;93.00;;;;;;4992634;28;20045;-70
2023/11/12 11:09:44;;;;;;;2.47;1.17;;;17.90;92.30;;;;;;4997190;28;20077;-70
2023/11/12 11:12:11;;;;;;;1.75;1.17;;;17.40;91.10;;;;;;4994454;28;20710;-70
2023/11/12 11:14:37;;;;;;;3.65;0.98;;;14.90;96.40;;;;;;5011074;28;20112;-71
2023/11/12 11:17:08;;;;;;;2.05;1.05;;;14.40;99.90;;;;;;4993715;28;20037;-71
2023/11/12 11:19:47;;;;;;;1.83;0.90;;;15.00;99.10;;;;;;4995471;28;20022;-70
2023/11/12 11:22:26;;;;;;;4.43;1.40;;;15.10;99.90;;;;;;5008996;28;20042;-71
2023/11/12 11:24:56;;;;;;;2.15;0.77;;;13.70;99.90;;;;;;5003742;28;20132;-70
2023/11/12 11:27:26;;;;;;;4.95;1.20;;;12.90;99.90;;;;;;5029602;23;20033;-70
2023/11/12 11:30:16;;;;;;;1.77;0.88;;;12.80;99.90;;;;;;5035293;28;20045;-70
2023/11/12 11:32:55;;;;;;;2.15;1.00;;;12.40;99.90;;;;;;5029623;28;20018;-70
2023/11/12 11:35:22;;;;;;;6.22;1.48;;;12.30;99.90;;;;;;5036376;28;20036;-70
2023/11/12 11:38:08;;;;;;;2.42;0.90;;;13.00;99.90;;;;;;5017704;28;20033;-70
2023/11/12 11:40:36;;;;;;;1.40;0.80;;;12.80;99.90;;;;;;5029746;28;20037;-71
2023/11/12 11:43:23;;;;;;;2.22;1.20;;;12.60;99.90;;;;;;5026279;28;20034;-71
2023/11/12 11:46:12;;;;;;;6.82;0.90;;;13.60;99.90;;;;;;5023339;28;20060;-70
2023/11/12 11:48:45;;;;;;;1.83;1.10;;;13.30;99.90;;;;;;5030199;28;20095;-70
2023/11/12 11:51:37;;;;;;;2.45;0.70;;;13.50;99.90;;;;;;5031074;28;20059;-70
2023/11/12 11:54:13;;;;;;;1.88;0.98;;;14.00;99.90;;;;;;5029555;28;20103;-70
2023/11/12 11:56:39;;;;;;;2.65;1.20;;;12.30;99.90;;;;;;5027563;28;20037;-70
2023/11/12 11:59:05;;;;;;;5.55;1.30;;;11.90;99.90;;;;;;5029886;28;20029;-70
2023/11/12 12:01:46;;;;;;;1.83;1.17;;;12.10;99.90;;;;;;5022435;28;20113;-70
2023/11/12 12:04:16;;;;;;;2.80;1.45;;;11.90;99.90;;;;;;5019350;28;20037;-71
2023/11/12 12:06:46;;;;;;;3.13;1.75;;;11.60;99.90;;;;;;5025616;28;20029;-71
2023/11/12 12:09:18;;;;;;;3.93;1.53;;;11.70;99.90;;;;;;5021891;28;20029;-71
2023/11/12 12:11:52;;;;;;;3.58;1.50;;;11.70;99.90;;;;;;5028369;28;20017;-71
2023/11/12 12:14:24;;;;;;;1.75;1.52;;;11.80;99.90;;;;;;5031172;28;20164;-71
2023/11/12 12:16:50;;;;;;;2.05;1.15;;;11.30;99.90;;;;;;5029308;28;20061;-72
2023/11/12 12:19:21;;;;;;;4.07;1.95;;;10.80;99.90;;;;;;5029178;28;20111;-71
2023/11/12 12:21:51;;;;;;;3.40;1.60;;;10.90;99.90;;;;;;5028691;28;20037;-71
2023/11/12 12:24:23;;;;;;;2.08;1.00;;;10.80;99.90;;;;;;5026755;28;20037;-71
2023/11/12 12:26:50;;;;;;;2.55;1.40;;;10.90;99.90;;;;;;5025619;28;20033;-72
2023/11/12 12:29:21;;;;;;;1.58;1.10;;;10.90;99.90;;;;;;5028780;28;20116;-71
2023/11/12 12:31:53;;;;;;;2.42;1.17;;;10.80;99.90;;;;;;5029155;28;20514;-75
2023/11/12 12:34:21;;;;;;;4.00;1.42;;;10.60;99.90;;;;;;5025653;28;20044;-76
2023/11/12 12:37:05;;;;;;;3.83;1.60;;;10.20;99.90;;;;;;5028721;28;20033;-76
2023/11/12 12:40:21;;;;;;;6.68;2.17;;;9.90;99.90;;;;;;5030255;28;20068;-73
2023/11/12 12:42:43;;;;;;;1.90;1.10;;;9.80;99.90;;;;;;5029035;28;20120;-74
2023/11/12 12:45:15;;;;;;;6.35;1.70;;;9.90;99.90;;;;;;5031164;28;20108;-73
2023/11/12 12:47:42;;;;;;;3.45;1.77;;;9.60;99.90;;;;;;5035478;28;20040;-74
2023/11/12 12:50:29;;;;;;;1.73;1.13;;;9.40;99.90;;;;;;5029939;28;20113;-70